createdAt,value
2022-09-23T00:01:20.793Z,92.01
2022-09-23T00:03:49.548Z,92.70
2022-09-23T00:06:19.831Z,92.80
2022-09-23T00:08:49.765Z,93.02
2022-09-23T00:11:20.008Z,92.53
2022-09-23T00:13:49.702Z,92.84
2022-09-23T00:16:21.521Z,93.23
2022-09-23T00:18:51.079Z,93.95
2022-09-23T00:21:20.400Z,93.71
2022-09-23T00:23:48.563Z,93.46
2022-09-23T00:26:19.188Z,93.47
2022-09-23T00:28:47.100Z,93.07
2022-09-23T00:31:18.071Z,92.86
2022-09-23T00:33:45.467Z,93.26
2022-09-23T00:36:16.536Z,93.33
2022-09-23T00:38:45.425Z,92.84
2022-09-23T00:41:16.578Z,93.00
2022-09-23T00:43:48.725Z,92.41
2022-09-23T00:46:27.868Z,92.65
2022-09-23T00:49:03.304Z,93.27
2022-09-23T00:51:36.154Z,92.80
2022-09-23T00:54:04.095Z,92.71
2022-09-23T00:56:33.078Z,92.65
2022-09-23T00:59:01.448Z,92.86
2022-09-23T01:01:28.981Z,92.70
2022-09-23T01:03:57.916Z,92.64
2022-09-23T01:06:25.454Z,92.95
2022-09-23T01:08:53.199Z,92.30
2022-09-23T01:11:46.043Z,92.38
2022-09-23T01:22:31.308Z,93.06
2022-09-23T01:30:36.681Z,92.65
2022-09-23T01:33:13.525Z,93.55
2022-09-23T01:36:19.319Z,93.04
2022-09-23T01:39:11.527Z,93.35
2022-09-23T01:44:29.623Z,93.52
2022-09-23T01:47:08.374Z,93.04
2022-09-23T01:52:28.786Z,93.48
2022-09-23T01:55:08.985Z,93.58
2022-09-23T01:57:43.930Z,93.19
2022-09-23T02:00:15.514Z,93.75
2022-09-23T02:02:56.520Z,92.94
2022-09-23T02:08:15.004Z,93.26
2022-09-23T02:10:56.420Z,93.36
2022-09-23T02:13:30.807Z,93.61
2022-09-23T02:16:02.470Z,93.62
2022-09-23T02:18:32.840Z,93.38
2022-09-23T02:21:06.605Z,92.86
2022-09-23T02:23:42.745Z,93.33
2022-09-23T02:26:35.809Z,93.71
2022-09-23T02:31:53.934Z,92.98
2022-09-23T02:34:43.333Z,93.80
2022-09-23T02:40:23.794Z,93.05
2022-09-23T02:45:28.811Z,93.19
2022-09-23T02:48:04.229Z,92.95
2022-09-23T02:50:32.867Z,93.26
2022-09-23T02:53:01.366Z,92.72
2022-09-23T02:55:33.774Z,92.57
2022-09-23T02:58:03.329Z,92.83
2022-09-23T03:00:57.460Z,92.60
2022-09-23T03:06:16.408Z,93.48
2022-09-23T03:08:51.395Z,93.29
2022-09-23T03:11:20.838Z,92.44
2022-09-23T03:14:17.985Z,93.41
2022-09-23T03:16:58.599Z,92.90
2022-09-23T03:19:35.303Z,93.19
2022-09-23T03:25:07.389Z,93.15
2022-09-23T03:27:36.865Z,92.15
2022-09-23T03:30:07.130Z,92.77
2022-09-23T03:32:36.456Z,92.71
2022-09-23T03:35:05.783Z,92.31
2022-09-23T03:37:38.682Z,92.17
2022-09-23T03:40:18.406Z,92.57
2022-09-23T03:42:49.130Z,92.70
2022-09-23T03:45:21.849Z,92.50
2022-09-23T03:47:49.220Z,92.90
2022-09-23T03:50:17.739Z,91.99
2022-09-23T03:52:45.315Z,92.32
2022-09-23T03:55:12.673Z,92.91
2022-09-23T03:57:40.025Z,92.43
2022-09-23T04:00:09.037Z,92.46
2022-09-23T04:02:40.120Z,92.84
2022-09-23T04:05:08.728Z,92.61
2022-09-23T04:07:35.980Z,92.26
2022-09-23T04:10:05.186Z,92.65
2022-09-23T04:12:32.437Z,93.09
2022-09-23T04:15:00.363Z,93.21
2022-09-23T04:17:27.660Z,92.89
2022-09-23T04:19:55.061Z,92.58
2022-09-23T04:22:22.562Z,92.74
2022-09-23T04:24:49.917Z,92.96
2022-09-23T04:27:17.246Z,93.24
2022-09-23T04:29:44.885Z,93.00
2022-09-23T04:32:12.193Z,92.75
2022-09-23T04:34:39.521Z,93.02
2022-09-23T04:37:06.924Z,93.01
2022-09-23T04:39:34.322Z,92.86
2022-09-23T04:42:01.625Z,92.67
2022-09-23T04:44:29.827Z,93.22
2022-09-23T04:46:57.237Z,92.95
2022-09-23T04:49:24.802Z,92.62
2022-09-23T04:51:52.074Z,93.08
2022-09-23T04:54:19.432Z,93.32
2022-09-23T04:56:46.639Z,92.92
2022-09-23T04:59:13.983Z,92.91
2022-09-23T05:01:41.854Z,92.28
2022-09-23T05:04:14.169Z,92.05
2022-09-23T05:06:44.213Z,91.91
2022-09-23T05:09:16.301Z,91.56
2022-09-23T05:11:44.220Z,92.36
2022-09-23T05:14:12.367Z,91.88
2022-09-23T05:16:39.711Z,91.82
2022-09-23T05:19:07.165Z,91.16
2022-09-23T05:21:34.483Z,91.29
2022-09-23T05:24:02.300Z,91.25
2022-09-23T05:26:32.173Z,90.63
2022-09-23T05:29:00.547Z,91.07
2022-09-23T05:31:30.415Z,90.30
2022-09-23T05:34:00.784Z,90.07
2022-09-23T05:36:32.122Z,90.18
2022-09-23T05:39:03.987Z,89.79
2022-09-23T05:41:31.512Z,89.97
2022-09-23T05:44:01.874Z,89.79
2022-09-23T05:46:32.422Z,90.23
2022-09-23T05:49:02.995Z,89.85
2022-09-23T05:51:32.101Z,89.27
2022-09-23T05:54:00.780Z,90.17
2022-09-23T05:56:29.503Z,89.94
2022-09-23T05:58:59.437Z,89.48
2022-09-23T06:01:29.162Z,89.45
2022-09-23T06:03:58.591Z,89.34
2022-09-23T06:06:30.532Z,88.98
2022-09-23T06:08:59.561Z,89.60
2022-09-23T06:11:30.141Z,88.41
2022-09-23T06:14:02.546Z,89.60
2022-09-23T06:16:32.545Z,88.36
2022-09-23T06:19:06.469Z,88.39
2022-09-23T06:21:36.577Z,87.41
2022-09-23T06:24:05.348Z,87.17
2022-09-23T06:26:35.450Z,86.79
2022-09-23T06:29:03.932Z,85.82
2022-09-23T06:31:32.354Z,84.95
2022-09-23T06:34:09.755Z,85.66
2022-09-23T06:36:44.058Z,85.41
2022-09-23T06:39:13.831Z,85.48
2022-09-23T06:41:41.313Z,84.50
2022-09-23T06:44:14.109Z,84.14
2022-09-23T06:46:41.915Z,84.27
2022-09-23T06:49:09.558Z,84.04
2022-09-23T06:51:36.946Z,84.21
2022-09-23T06:54:04.741Z,84.75
2022-09-23T06:56:36.339Z,83.71
2022-09-23T06:59:06.872Z,82.64
2022-09-23T07:01:35.341Z,83.22
2022-09-23T07:04:02.856Z,82.41
2022-09-23T07:06:30.259Z,81.94
2022-09-23T07:08:57.781Z,81.74
2022-09-23T07:11:25.067Z,81.39
2022-09-23T07:13:52.657Z,80.08
2022-09-23T07:16:20.091Z,80.61
2022-09-23T07:18:47.617Z,79.83
2022-09-23T07:21:18.015Z,80.20
2022-09-23T07:23:47.774Z,80.51
2022-09-23T07:26:16.542Z,81.19
2022-09-23T07:28:43.900Z,80.63
2022-09-23T07:31:14.697Z,80.63
2022-09-23T07:33:44.465Z,80.66
2022-09-23T07:36:18.248Z,80.47
2022-09-23T07:38:47.576Z,80.03
2022-09-23T07:41:18.024Z,79.29
2022-09-23T07:43:46.547Z,78.98
2022-09-23T07:46:17.635Z,77.56
2022-09-23T07:48:46.149Z,76.12
2022-09-23T07:51:20.343Z,74.89
2022-09-23T07:53:49.361Z,74.94
2022-09-23T07:56:19.333Z,73.90
2022-09-23T07:59:00.429Z,72.80
2022-09-23T08:01:34.473Z,72.44
2022-09-23T08:04:10.662Z,73.96
2022-09-23T08:06:45.637Z,73.70
2022-09-23T08:09:13.278Z,73.51
2022-09-23T08:11:42.381Z,73.52
2022-09-23T08:14:12.647Z,73.35
2022-09-23T08:16:41.186Z,73.10
2022-09-23T08:19:08.714Z,72.64
2022-09-23T08:21:37.909Z,71.67
2022-09-23T08:24:07.863Z,70.71
2022-09-23T08:26:36.105Z,71.07
2022-09-23T08:29:03.763Z,69.91
2022-09-23T08:31:31.400Z,69.23
2022-09-23T08:33:59.801Z,68.35
2022-09-23T08:36:27.606Z,67.36
2022-09-23T08:38:55.762Z,68.01
2022-09-23T08:44:04.863Z,66.52
2022-09-23T08:46:37.961Z,66.90
2022-09-23T08:49:07.709Z,65.48
2022-09-23T08:51:41.451Z,66.11
2022-09-23T08:54:13.270Z,64.96
2022-09-23T08:56:44.597Z,66.04
2022-09-23T08:59:21.534Z,66.79
2022-09-23T09:01:54.607Z,67.35
2022-09-23T09:07:37.960Z,67.96
2022-09-23T09:12:46.828Z,64.22
2022-09-23T09:23:23.569Z,68.41
2022-09-23T09:26:02.971Z,69.45
2022-09-23T09:28:38.334Z,70.10
2022-09-23T15:15:48.416Z,76.29
2022-09-23T15:18:24.019Z,76.54
2022-09-23T15:20:54.499Z,76.73
2022-09-23T15:26:18.426Z,77.66
2022-09-23T15:28:47.034Z,77.83
2022-09-23T15:31:16.396Z,77.61
2022-09-23T15:33:47.837Z,77.98
2022-09-23T15:36:19.401Z,78.33
2022-09-23T15:38:47.758Z,78.37
2022-09-23T15:41:16.690Z,78.57
2022-09-23T15:43:44.610Z,78.27
2022-09-23T15:46:18.928Z,78.87
2022-09-23T15:51:32.627Z,78.73
2022-09-23T15:54:05.307Z,79.13
2022-09-23T15:56:34.666Z,79.28
2022-09-23T15:59:02.057Z,79.53
2022-09-23T16:01:32.182Z,79.86
2022-09-23T16:04:01.489Z,79.89
2022-09-23T16:06:29.563Z,80.07
2022-09-23T16:08:57.294Z,79.97
2022-09-23T16:11:32.037Z,80.37
2022-09-23T16:14:00.940Z,80.72
2022-09-23T16:16:28.746Z,80.67
2022-09-23T16:18:56.574Z,80.74
2022-09-23T16:21:26.756Z,81.13
2022-09-23T16:23:55.191Z,80.54
2022-09-23T16:26:25.994Z,80.95
2022-09-23T16:28:55.241Z,81.06
2022-09-23T16:31:25.917Z,81.33
2022-09-23T16:33:54.049Z,81.10
2022-09-23T16:36:31.507Z,80.72
2022-09-23T16:39:01.137Z,81.19
2022-09-23T16:41:31.719Z,80.18
2022-09-23T16:44:01.263Z,80.75
2022-09-23T16:46:29.520Z,81.23
2022-09-23T16:48:57.865Z,80.68
2022-09-23T17:54:04.353Z,84.53
2022-09-23T17:56:37.447Z,84.60
2022-09-23T17:59:05.396Z,84.75
2022-09-23T18:01:33.269Z,84.51
2022-09-23T18:04:02.135Z,84.85
2022-09-23T18:06:40.028Z,84.23
2022-09-23T18:09:10.336Z,84.17
2022-09-23T18:11:40.843Z,84.73
2022-09-23T18:14:14.269Z,84.16
2022-09-23T18:16:44.435Z,84.37
2022-09-23T18:19:15.240Z,84.89
2022-09-23T18:21:45.195Z,84.64
2022-09-23T18:24:32.464Z,84.62
2022-09-23T18:27:01.324Z,84.27
2022-09-23T18:29:29.125Z,84.68
2022-09-23T18:31:57.103Z,84.31
2022-09-23T18:34:24.605Z,84.49
2022-09-23T18:36:52.124Z,84.21
2022-09-23T18:39:23.701Z,84.92
2022-09-23T18:41:52.855Z,84.86
2022-09-23T18:44:20.474Z,84.72
2022-09-23T18:46:48.185Z,85.25
2022-09-23T18:49:35.505Z,84.86
2022-09-23T18:52:03.006Z,85.29
2022-09-23T18:54:30.782Z,85.02
2022-09-23T18:56:59.700Z,85.47
2022-09-23T18:59:30.188Z,84.89
2022-09-23T19:01:58.286Z,84.85
2022-09-23T19:04:27.457Z,85.23
2022-09-23T19:06:56.850Z,85.61
2022-09-23T19:09:24.733Z,85.15
2022-09-23T19:11:53.095Z,86.14
2022-09-23T19:14:21.044Z,85.51
2022-09-23T19:16:49.816Z,86.52
2022-09-23T19:19:17.542Z,86.42
2022-09-23T19:21:45.139Z,86.75
2022-09-23T19:24:16.339Z,86.76
2022-09-23T19:26:44.435Z,86.92
2022-09-23T19:29:16.556Z,86.80
2022-09-23T19:31:44.415Z,86.91
2022-09-23T19:34:15.187Z,86.51
2022-09-23T19:36:44.819Z,86.92
2022-09-23T19:39:22.601Z,87.30
2022-09-23T19:41:51.007Z,87.58
2022-09-23T19:44:20.375Z,86.95
2022-09-23T19:46:55.067Z,86.96
2022-09-23T19:49:25.005Z,87.08
2022-09-23T19:51:56.163Z,87.10
2022-09-23T19:54:26.869Z,87.59
2022-09-23T19:56:54.808Z,87.17
2022-09-23T19:59:22.225Z,87.25
2022-09-23T20:01:49.693Z,87.01
2022-09-23T20:04:17.553Z,87.65
2022-09-23T20:06:46.257Z,87.23
2022-09-23T20:09:14.083Z,87.90
2022-09-23T20:11:43.353Z,87.69
2022-09-23T20:14:12.020Z,87.94
2022-09-23T20:16:39.420Z,88.05
2022-09-23T20:19:06.921Z,88.98
2022-09-23T20:21:34.641Z,88.79
2022-09-23T20:24:05.515Z,88.80
2022-09-23T20:26:52.841Z,89.19
2022-09-23T20:29:20.190Z,89.17
2022-09-23T20:31:47.949Z,89.72
2022-09-23T20:34:15.413Z,90.24
2022-09-23T20:36:42.933Z,89.64
2022-09-23T20:39:10.561Z,90.38
2022-09-23T20:41:39.558Z,91.09
2022-09-23T20:44:10.583Z,90.54
2022-09-23T20:46:38.084Z,90.37
2022-09-23T20:49:09.020Z,90.80
2022-09-23T20:51:37.376Z,90.65
2022-09-23T20:54:04.804Z,91.25
2022-09-23T20:56:32.268Z,91.30
2022-09-23T20:59:01.195Z,91.70
2022-09-23T21:01:28.821Z,91.32
2022-09-23T21:03:56.213Z,91.91
2022-09-23T21:06:26.315Z,91.41
2022-09-23T21:08:55.174Z,91.28
2022-09-23T21:11:22.965Z,92.32
2022-09-23T21:13:51.731Z,92.28
2022-09-23T21:16:22.794Z,91.83
2022-09-23T21:18:51.863Z,92.11
2022-09-23T21:21:22.360Z,92.35
2022-09-23T21:23:50.883Z,92.78
2022-09-23T21:26:23.569Z,92.40
2022-09-23T21:28:53.390Z,92.84
2022-09-23T21:31:23.821Z,92.32
2022-09-23T21:33:54.222Z,93.07
2022-09-23T21:36:21.945Z,92.89
2022-09-23T21:38:49.774Z,92.90
2022-09-23T21:41:17.973Z,92.15
2022-09-23T21:43:45.849Z,92.93
2022-09-23T21:46:14.922Z,93.08
2022-09-23T21:48:43.093Z,92.25
2022-09-23T21:51:13.565Z,92.49
2022-09-23T21:53:42.538Z,93.35
2022-09-23T21:56:20.499Z,93.07
2022-09-23T21:58:49.168Z,92.40
2022-09-23T22:01:19.491Z,92.32
2022-09-23T22:06:32.701Z,93.51
2022-09-23T22:09:02.358Z,93.01
2022-09-23T22:11:51.934Z,93.37
2022-09-23T22:14:20.958Z,93.12
2022-09-23T22:16:48.253Z,93.49
2022-09-23T22:19:15.818Z,92.76
2022-09-23T22:21:45.653Z,93.26
2022-09-23T22:24:13.788Z,93.62
2022-09-23T22:26:43.069Z,92.86
2022-09-23T22:29:33.649Z,92.96
2022-09-23T22:32:22.430Z,93.63
2022-09-23T22:34:51.482Z,93.68
2022-09-23T22:37:21.850Z,93.75
2022-09-23T22:39:49.266Z,93.24
2022-09-23T22:42:16.517Z,93.28
2022-09-23T22:44:43.744Z,93.34
2022-09-23T22:47:11.192Z,93.48
2022-09-23T22:49:38.562Z,93.82
2022-09-23T22:52:11.479Z,93.76
2022-09-23T22:54:38.845Z,93.68
2022-09-23T22:57:08.491Z,92.95
2022-09-23T22:59:37.164Z,93.79
2022-09-23T23:02:05.308Z,93.29
2022-09-23T23:04:34.050Z,94.02
2022-09-23T23:07:01.358Z,93.79
2022-09-23T23:09:28.552Z,93.69
2022-09-23T23:11:55.820Z,93.56
2022-09-23T23:14:23.041Z,93.92
2022-09-23T23:16:50.421Z,94.01
2022-09-23T23:19:19.440Z,93.41
2022-09-23T23:21:46.791Z,93.83
2022-09-23T23:24:19.080Z,93.51
2022-09-23T23:26:46.902Z,93.95
2022-09-23T23:29:16.285Z,93.99
2022-09-23T23:31:44.599Z,93.91
2022-09-23T23:34:14.767Z,93.84
2022-09-23T23:36:43.811Z,93.38
2022-09-23T23:39:11.488Z,94.54
2022-09-23T23:41:40.334Z,93.60
2022-09-23T23:44:08.072Z,93.94
2022-09-23T23:46:37.464Z,93.74
2022-09-23T23:49:05.336Z,93.76
2022-09-23T23:51:32.792Z,93.33
2022-09-23T23:54:00.386Z,93.88
2022-09-23T23:56:28.155Z,94.49
2022-09-23T23:58:58.387Z,94.11
